ADDS METAR Data INFO
IDs: Format: Raw Decoded Include TAF

Data at: 0027 UTC 23 Oct 2017

KAOH 222353Z AUTO 17010KT 10SM CLR 20/09 A3008 RMK AO2 SLP184 T02000094 10250 20200 53001
KAOH 222253Z AUTO 17011KT 10SM CLR 21/09 A3007 RMK AO2 SLP182 T02110094
KAOH 222153Z AUTO 17016G20KT 10SM CLR 23/12 A3007 RMK AO2 SLP180 T02330117
KAOH 222053Z AUTO 19013G20KT 10SM CLR 24/12 A3008 RMK AO2 SLP182 T02390117 56014
KAOH 221953Z AUTO 21013G21KT 10SM CLR 24/13 A3008 RMK AO2 SLP182 T02440128
KAOH 221853Z AUTO 18015KT 10SM CLR 24/13 A3009 RMK AO2 SLP185 T02440128
KAOH 221753Z AUTO 19012KT 10SM CLR 24/13 A3012 RMK AO2 SLP195 T02390128 10244 20133 58019
KAOH 221653Z AUTO 18016G21KT 10SM CLR 23/12 A3016 RMK AO2 SLP208 T02330122
KAOH 221553Z AUTO 19016G25KT 10SM FEW042 22/12 A3017 RMK AO2 SLP212 T02220117
KAOH 221453Z AUTO 19011G21KT 10SM CLR 21/12 A3017 RMK AO2 SLP215 T02060117 50004
KAOH 221353Z AUTO 18011KT 10SM CLR 17/11 A3019 RMK AO2 SLP221 T01720106
KAOH 221253Z AUTO 17008KT 10SM CLR 14/10 A3019 RMK AO2 SLP221 T01440100
KAOH 221153Z AUTO 16008KT 10SM CLR 13/09 A3016 RMK AO2 SLP212 T01330094 10144 20111 56003
KAOH 221053Z AUTO 16008KT 10SM CLR 12/09 A3016 RMK AO2 SLP212 T01220089
KAOH 220953Z AUTO 16007KT 10SM CLR 12/08 A3016 RMK AO2 SLP212 T01170083
KAOH 220853Z AUTO 16006KT 10SM CLR 12/08 A3017 RMK AO2 SLP214 T01170083 55002
KAOH 220753Z AUTO 17006KT 10SM CLR 12/08 A3017 RMK AO2 SLP212 T01170083
KAOH 220653Z AUTO 18006KT 10SM CLR 13/09 A3018 RMK AO2 SLP215 T01330089
KAOH 220553Z AUTO 18006KT 10SM CLR 14/09 A3018 RMK AO2 SLP215 T01390094 10172 20128 55004
KAOH 220453Z AUTO 17005KT 10SM CLR 14/09 A3017 RMK AO2 SLP213 T01390094 402500117
KAOH 220353Z AUTO 15008KT 10SM CLR 14/09 A3018 RMK AO2 SLP218 T01390089
KAOH 220253Z AUTO 16004KT 10SM CLR 15/09 A3019 RMK AO2 SLP222 T01500089 56001
KAOH 220153Z AUTO 18005KT 10SM CLR 17/08 A3020 RMK AO2 SLP223 T01670083
KAOH 220053Z AUTO 16008KT 10SM CLR 16/07 A3019 RMK AO2 SLP223 T01560072
KAOH 212353Z AUTO 17007KT 10SM CLR 17/06 A3020 RMK AO2 SLP224 T01720061 10250 20161 53007
KAOH 212253Z AUTO 17007KT 10SM CLR 18/06 A3018 RMK AO2 SLP219 T01830061
KAOH 212153Z AUTO 19008KT 10SM CLR 22/08 A3018 RMK AO2 SLP217 T02170083
KAOH 212053Z AUTO 19010KT 10SM CLR 24/07 A3018 RMK AO2 SLP215 T02390072 56006
KAOH 211953Z AUTO 19010KT 10SM CLR 24/08 A3018 RMK AO2 SLP216 T02390078
KAOH 211853Z AUTO 19008KT 150V220 10SM CLR 23/09 A3019 RMK AO2 SLP219 T02330094
KAOH 211753Z AUTO 19010KT 10SM CLR 25/11 A3019 RMK AO2 SLP221 T02500111 10250 20117 58013
KAOH 211653Z AUTO 17006KT 10SM CLR 23/13 A3022 RMK AO2 SLP230 T02280128
KAOH 211553Z AUTO 19010KT 10SM CLR 21/12 A3023 RMK AO2 SLP234 T02060122
KAOH 211453Z AUTO 18008KT 10SM CLR 18/12 A3023 RMK AO2 SLP236 T01830122 50005
KAOH 211353Z AUTO 18010KT 10SM CLR 17/12 A3024 RMK AO2 SLP238 T01670122
KAOH 211253Z AUTO 17006KT 10SM CLR 13/11 A3023 RMK AO2 SLP237 T01330111